Date,TemperatureHighF,TemperatureAvgF,TemperatureLowF,DewpointHighF,DewpointAvgF,DewpointLowF,HumidityHigh,HumidityAvg,HumidityLow,PressureMaxIn,PressureMinIn,WindSpeedMaxMPH,WindSpeedAvgMPH,GustSpeedMaxMPH,PrecipitationSumIn
2013-1-1,41.5,39.5,30.9,15.6,12.2,3.1,38,32,29,29.91,29.77,14,3,14,0.00
2013-1-2,36.5,29.2,24.8,5.4,1.8,-1.0,33,30,25,30.12,29.91,15,4,16,0.00
2013-1-3,36.0,28.2,21.4,7.3,2.8,0.1,46,34,24,30.12,29.97,13,2,13,0.00
2013-1-4,39.0,33.7,26.2,9.3,7.7,5.3,45,33,29,30.06,29.91,20,3,20,0.00
2013-1-5,43.7,33.8,27.9,11.7,7.4,3.8,47,33,25,30.24,29.97,16,3,16,0.00
2013-1-6,48.7,37.8,30.9,33.2,17.9,10.2,80,47,27,30.15,29.88,11,1,11,0.04
2013-1-7,49.3,38.5,25.9,16.8,12.7,7.3,55,35,24,30.33,29.97,15,2,15,0.00
2013-1-8,50.7,34.8,23.0,27.0,16.8,11.4,72,50,28,30.33,30.27,15,1,15,0.00
2013-1-9,52.9,39.7,30.0,30.6,22.6,18.9,75,52,32,30.30,30.06,14,1,14,0.00
2013-1-10,51.6,43.5,33.8,20.4,14.3,10.3,44,31,24,30.45,30.18,15,4,15,0.00
2013-1-11,49.1,41.9,32.2,45.2,26.0,12.4,93,56,35,30.42,29.97,10,2,10,0.59
2013-1-12,49.5,46.1,44.2,45.0,40.3,31.9,93,81,52,30.06,29.97,9,2,9,0.00
2013-1-13,53.4,47.8,42.4,48.5,41.0,34.3,91,79,50,30.06,29.88,9,1,9,0.00
2013-1-14,57.7,53.6,40.3,52.1,38.0,15.3,89,61,27,30.18,29.83,15,3,15,0.00
2013-1-15,40.3,38.7,35.1,24.6,19.5,12.1,57,46,33,30.24,30.09,11,4,11,0.12
2013-1-16,37.9,36.2,34.2,33.0,29.1,21.0,82,75,57,30.09,29.71,15,3,15,0.83
2013-1-17,45.7,39.2,36.3,31.7,20.9,13.1,79,51,30,30.00,29.85,15,2,15,0.00
2013-1-18,38.1,31.1,23.7,15.6,4.2,-4.1,41,32,23,30.39,29.91,25,4,25,0.00
2013-1-19,53.1,39.4,25.0,16.3,10.6,1.2,44,31,21,30.33,29.85,17,4,17,0.00
2013-1-20,57.7,44.7,32.2,19.6,10.8,-1.4,33,25,17,29.97,29.65,28,6,28,0.00
2013-1-21,34.3,29.8,26.1,13.5,0.4,-6.0,56,29,23,30.03,29.74,18,3,18,0.00
2013-1-22,26.2,19.7,13.8,1.1,-8.6,-14.4,33,27,25,30.15,29.77,24,8,24,0.00
2013-1-23,22.6,14.9,8.4,-8.3,-13.3,-17.3,29,27,25,30.21,30.09,19,4,19,0.00
2013-1-24,26.8,18.4,10.0,-3.2,-10.1,-15.9,45,27,21,30.36,30.06,23,5,23,0.00
2013-1-25,24.4,19.1,11.1,5.5,-0.9,-8.2,54,43,24,30.18,29.97,8,1,8,0.00
2013-1-26,29.1,19.7,5.0,2.0,-3.1,-8.8,54,37,25,30.33,29.97,18,4,18,0.00
2013-1-27,35.8,23.9,12.2,4.7,-1.4,-9.1,47,33,24,30.47,30.33,15,2,15,0.00
2013-1-28,36.1,30.1,19.9,30.9,17.8,2.2,82,61,43,30.42,29.94,10,2,10,0.08
2013-1-29,51.4,42.8,32.5,42.6,30.5,26.8,84,64,41,30.06,29.94,10,2,10,0.00
2013-1-30,67.8,53.0,44.6,48.4,42.5,35.8,91,71,34,29.94,29.26,26,4,26,0.04
2013-1-31,63.9,53.7,30.2,50.1,30.4,-3.3,64,43,20,29.77,29.00,32,10,32,0.67
2013-2-1,32.7,28.1,22.6,8.6,-2.3,-8.2,49,26,23,30.21,29.77,30,6,30,0.67
2013-2-2,31.3,24.7,17.4,11.7,-3.6,-9.6,57,29,23,30.24,29.94,18,4,18,0.67
2013-2-3,34.3,27.0,21.4,16.9,9.5,4.3,66,48,33,29.94,29.71,15,2,15,0.67
2013-2-4,31.6,26.8,20.8,18.0,0.8,-3.2,66,32,25,29.94,29.77,20,4,20,0.67
2013-2-5,33.8,30.9,27.3,24.5,17.4,7.2,72,57,41,29.88,29.80,8,2,8,0.00
2013-2-6,41.5,33.2,25.0,25.0,13.6,5.4,74,47,29,30.27,29.83,22,3,22,0.00
2013-2-7,35.8,29.1,21.6,12.6,5.7,1.5,52,37,30,30.42,30.18,10,3,10,0.00
2013-2-8,40.6,37.0,31.1,38.6,26.5,12.6,93,66,41,30.18,29.56,24,7,24,0.79
2013-2-9,34.7,28.9,22.5,28.2,8.9,-6.5,87,47,25,30.27,29.68,23,4,23,0.79
2013-2-10,43.5,28.9,14.9,9.8,0.8,-6.5,45,30,20,30.42,30.21,13,2,13,0.79
2013-2-11,54.5,43.6,32.2,48.7,33.5,9.4,92,69,38,30.24,29.56,16,2,17,0.79
2013-2-12,49.5,42.2,31.3,26.5,12.4,6.5,47,30,21,29.88,29.68,24,6,24,0.79
2013-2-13,45.7,34.4,27.3,28.7,12.9,7.3,83,43,28,29.88,29.59,12,2,12,0.00
2013-2-14,49.5,38.1,30.2,33.3,21.0,11.8,84,55,26,29.94,29.62,10,1,10,0.20
2013-2-15,58.8,42.8,28.8,29.9,19.7,13.5,79,45,19,29.94,29.80,17,2,17,0.20
2013-2-16,41.9,36.4,31.1,26.4,15.5,1.8,68,44,29,29.88,29.65,17,6,17,0.20
2013-2-17,34.2,28.5,21.6,3.3,-3.3,-9.0,30,25,22,29.97,29.62,34,10,34,0.00
2013-2-18,38.5,27.6,19.6,1.9,-4.5,-10.5,28,24,21,30.21,29.97,28,6,28,0.00
2013-2-19,50.5,39.5,28.2,40.7,18.2,-2.0,82,44,25,30.12,29.59,19,4,20,0.20
2013-2-20,37.6,31.4,25.3,12.3,0.9,-5.4,35,27,22,29.94,29.68,29,8,29,0.00
2013-2-21,37.0,29.8,23.7,3.5,-0.7,-5.4,31,26,22,30.21,29.94,32,9,32,0.00
2013-2-22,38.1,30.9,22.8,24.2,6.9,-1.8,69,36,30,30.30,30.15,12,3,12,0.00
2013-2-23,47.5,41.3,33.4,42.5,36.3,24.2,94,83,66,30.18,29.71,17,4,17,0.20
2013-2-24,49.3,39.9,32.0,33.4,19.5,4.8,83,48,27,29.94,29.65,26,6,26,0.00
2013-2-25,46.6,36.9,28.8,14.6,9.5,3.9,49,32,25,30.15,29.94,14,3,14,0.00
2013-2-26,45.3,36.1,25.0,33.8,18.4,12.0,76,50,30,30.18,29.71,24,6,24,0.31
2013-2-27,55.9,46.9,41.4,49.3,32.0,18.5,93,60,27,29.71,29.41,21,5,21,0.28
2013-2-28,48.4,42.9,36.3,28.9,18.7,11.1,61,39,27,29.56,29.47,14,3,14,0.00
2013-3-1,48.6,39.9,31.5,18.3,13.5,8.5,54,35,24,29.71,29.56,21,5,21,0.00
2013-3-2,43.0,36.5,32.5,11.7,7.8,5.3,32,30,25,29.74,29.62,15,6,15,0.00
2013-3-3,39.2,32.9,27.7,6.9,3.9,1.0,32,29,23,29.71,29.62,19,8,19,0.00
2013-3-4,44.1,35.1,28.8,8.5,4.2,0.1,31,27,23,29.85,29.71,26,8,26,0.00
2013-3-5,50.9,38.4,30.7,14.9,8.9,4.4,48,30,21,29.94,29.83,17,4,17,0.00
2013-3-6,41.0,38.9,32.4,23.6,19.4,14.9,55,45,39,29.85,29.62,37,12,37,0.39
2013-3-7,45.3,38.9,34.5,21.0,15.5,11.0,56,39,28,30.00,29.80,28,8,28,0.31
2013-3-8,41.0,32.8,30.6,31.2,23.8,11.8,82,70,32,30.12,29.94,17,2,17,0.20
2013-3-9,60.1,39.0,30.7,17.3,10.9,4.5,42,32,17,30.21,30.09,15,5,15,0.00
2013-3-10,56.1,39.7,26.4,28.8,17.9,9.1,75,43,22,30.27,30.18,13,3,13,0.00
2013-3-11,61.0,45.4,32.0,44.5,30.5,20.1,93,61,21,30.21,29.97,13,3,13,0.00
2013-3-12,59.2,53.8,44.2,52.0,38.3,20.7,77,57,38,29.97,29.59,20,6,20,0.47
2013-3-13,52.0,42.8,35.8,20.7,14.0,8.2,40,31,21,29.85,29.71,19,5,19,0.00
2013-3-14,42.8,35.6,30.7,8.0,4.8,-0.6,34,27,21,29.88,29.80,28,8,28,0.00
2013-3-15,50.4,39.5,27.1,11.9,5.1,-3.6,31,24,21,29.94,29.62,21,5,21,0.00
2013-3-16,44.2,37.0,33.3,28.7,18.1,8.8,82,50,28,29.83,29.65,14,4,14,0.08
2013-3-17,40.3,34.4,28.9,27.9,13.5,3.4,77,46,26,30.21,29.83,19,3,19,0.00
2013-3-18,41.4,34.7,28.9,34.1,14.5,2.8,86,47,29,30.27,29.83,17,6,17,0.47
2013-3-19,52.3,42.3,37.6,36.8,25.0,2.3,93,57,20,29.83,29.62,24,5,24,0.39
2013-3-20,49.5,40.5,30.0,8.6,4.9,0.8,31,23,19,29.85,29.68,22,5,22,0.00
2013-3-21,41.4,36.0,29.5,14.5,4.5,-3.7,49,27,21,29.71,29.56,22,5,22,0.00
2013-3-22,43.7,35.0,27.7,8.0,2.7,-4.5,32,25,20,29.83,29.71,24,6,24,0.00
2013-3-23,50.5,39.4,28.9,9.7,5.3,1.0,32,24,19,29.85,29.74,28,6,28,0.00
2013-3-24,47.8,38.5,26.2,9.9,5.6,-1.0,40,25,19,29.88,29.59,15,3,15,0.00
2013-3-25,38.7,35.7,33.1,29.8,22.4,9.8,84,61,32,29.62,29.35,23,5,23,0.47
2013-3-26,54.0,43.3,35.1,29.2,20.4,10.1,77,45,21,29.80,29.53,15,4,15,0.00
2013-3-27,54.5,43.8,33.3,18.8,14.5,10.1,49,32,20,29.91,29.80,25,5,25,0.00
2013-3-28,51.3,43.1,34.3,17.6,14.2,11.9,41,31,24,30.03,29.91,20,5,20,0.00
2013-3-29,56.5,46.7,35.8,16.3,13.3,10.0,38,26,20,30.06,29.97,18,5,19,0.00
2013-3-30,60.4,46.5,29.3,23.9,14.4,6.4,60,30,17,30.09,29.97,16,2,16,0.00
2013-3-31,57.0,45.3,30.9,47.9,25.3,10.0,93,50,20,30.06,29.62,16,3,17,0.24
2013-4-1,65.8,51.0,39.0,44.2,25.7,2.3,82,43,20,29.83,29.53,24,5,24,0.00
2013-4-2,46.9,39.3,30.6,7.4,3.0,-2.8,25,21,19,30.03,29.83,27,6,27,0.00
2013-4-3,49.1,39.8,28.8,8.5,3.1,-4.3,25,21,19,30.21,30.03,26,6,26,0.00
2013-4-4,57.2,40.9,26.4,12.5,5.0,-4.2,34,22,17,30.30,30.00,12,3,12,0.00
2013-4-5,65.7,49.6,37.6,33.0,18.1,6.4,78,34,15,30.00,29.62,19,5,19,0.08
2013-4-6,55.2,43.8,35.2,12.3,6.7,0.2,34,22,18,30.21,29.91,17,5,20,0.00
2013-4-7,63.7,48.7,34.5,27.6,19.6,11.1,51,33,19,30.24,29.88,17,4,17,0.00
2013-4-8,79.3,61.9,45.3,33.1,28.1,24.6,52,30,15,29.97,29.85,13,3,13,0.00
2013-4-9,84.7,67.7,58.1,34.8,31.0,23.1,40,27,13,29.91,29.80,14,2,16,0.00
2013-4-10,90.5,70.6,59.0,55.0,33.7,26.0,79,28,13,29.83,29.68,31,4,31,0.28
2013-4-11,68.4,58.9,48.0,59.8,46.8,28.5,86,67,35,29.85,29.68,17,3,17,0.00
2013-4-12,48.0,45.7,43.5,41.8,38.9,30.3,93,78,50,29.85,29.56,21,8,21,1.10
2013-4-13,62.4,51.2,40.1,40.9,26.1,15.6,89,44,19,29.85,29.62,19,3,19,0.00
2013-4-14,62.8,52.1,37.9,40.7,23.8,15.3,77,38,18,30.06,29.85,22,4,22,0.00
2013-4-15,59.7,51.3,45.5,26.9,20.0,15.9,43,29,24,30.24,30.06,12,4,12,0.00
2013-4-16,71.6,59.8,47.7,36.8,33.0,26.8,61,38,24,30.24,30.00,17,5,17,0.00
2013-4-17,74.1,61.6,50.0,49.6,32.6,22.6,70,37,16,30.15,29.97,17,3,17,0.00
2013-4-18,63.5,55.8,47.1,54.2,36.7,24.9,83,50,31,30.21,29.97,14,4,14,0.00
2013-4-19,79.7,67.4,58.8,56.5,47.0,37.9,83,52,23,29.97,29.53,20,6,20,0.08
2013-4-20,63.9,53.4,46.8,54.7,22.0,6.7,72,32,17,30.18,29.59,20,6,20,0.16
2013-4-21,56.5,45.2,35.1,16.4,9.2,1.0,46,23,17,30.50,30.18,16,4,16,0.16
2013-4-22,50.0,45.6,32.0,25.6,19.7,15.2,63,36,28,30.50,30.36,20,8,20,0.00
2013-4-23,47.7,44.0,42.3,37.9,22.8,19.6,72,43,38,30.36,30.03,17,6,17,0.00
2013-4-24,72.7,55.0,35.4,41.3,32.7,27.8,79,47,23,30.03,29.71,14,3,14,0.00
2013-4-25,66.4,55.2,41.2,42.2,19.9,12.2,56,26,15,30.15,29.77,24,5,24,0.00
2013-4-26,67.8,53.3,36.1,27.5,20.8,11.5,63,31,15,30.30,30.15,15,2,15,0.00
2013-4-27,71.6,56.2,39.4,24.9,20.0,13.7,41,26,15,30.33,30.15,13,2,13,0.00
2013-4-28,70.9,55.6,38.3,36.3,22.0,12.5,73,31,16,30.21,30.09,15,3,15,0.00
2013-4-29,57.0,54.2,52.2,51.3,44.4,25.5,84,71,33,30.12,30.03,12,3,12,0.28
2013-4-30,66.0,57.0,48.0,49.1,28.8,13.5,88,39,18,30.21,30.06,14,5,15,0.00
2013-5-1,65.1,53.5,40.5,33.8,23.8,18.4,66,34,18,30.36,30.21,17,4,17,0.00
2013-5-2,70.2,55.8,37.9,36.3,26.6,18.5,75,37,17,30.36,30.18,13,2,13,0.00
2013-5-3,61.0,52.9,42.4,32.8,25.8,20.6,62,36,21,30.33,30.21,15,5,15,0.00
2013-5-4,65.5,53.5,42.3,39.4,29.0,21.3,85,44,20,30.27,30.09,15,4,15,0.00
2013-5-5,60.6,49.3,39.6,36.7,27.2,22.3,81,46,25,30.18,30.09,13,3,13,0.00
2013-5-6,66.9,54.8,42.6,45.5,36.7,32.3,84,53,29,30.12,30.00,15,4,15,0.00
2013-5-7,69.1,58.4,50.2,54.1,45.2,36.2,95,66,32,30.03,29.94,12,4,12,0.12
2013-5-8,75.7,64.0,55.6,60.4,44.8,28.2,93,56,18,29.94,29.80,13,4,13,0.98
2013-5-9,73.2,62.4,55.6,57.0,41.4,31.1,90,52,23,29.85,29.77,10,1,10,0.71
2013-5-10,85.1,69.3,52.3,58.6,38.3,27.0,84,40,13,29.88,29.74,11,2,11,0.00
2013-5-11,78.1,67.4,62.4,58.6,51.0,39.4,82,59,26,29.80,29.56,11,2,11,0.16
2013-5-12,67.6,61.1,50.4,57.8,29.2,9.7,80,34,15,29.85,29.56,19,4,19,0.00
2013-5-13,59.2,50.0,38.7,23.4,16.0,8.6,47,27,17,30.00,29.85,17,4,17,0.00
2013-5-14,63.5,51.0,37.6,22.4,17.1,11.3,51,28,16,30.06,29.91,18,3,18,0.00
2013-5-15,74.7,56.5,43.5,44.2,29.9,22.0,53,37,22,29.97,29.56,13,2,13,0.00
2013-5-16,82.0,67.4,56.1,59.0,46.0,33.4,83,52,21,29.74,29.59,10,1,11,0.04
2013-5-17,76.6,66.0,54.3,55.9,29.2,23.1,74,27,15,30.06,29.71,15,2,15,0.00
2013-5-18,66.6,58.5,51.6,51.6,39.7,29.4,83,51,30,30.18,30.06,10,2,10,0.16
2013-5-19,61.7,59.4,56.3,58.7,54.5,49.5,92,84,70,30.15,30.03,10,2,10,0.04
2013-5-20,82.4,69.1,60.8,65.5,50.3,36.7,92,59,21,30.03,29.83,10,1,10,0.00
2013-5-21,84.7,73.5,62.6,67.3,48.6,38.3,88,48,20,29.85,29.71,10,2,10,0.00
2013-5-22,87.1,74.5,65.7,69.1,51.8,40.1,91,50,21,29.80,29.65,10,2,10,0.00
2013-5-23,82.9,72.5,67.6,62.5,53.0,40.8,79,53,24,29.77,29.62,15,4,15,0.24
2013-5-24,68.2,57.0,45.5,63.4,42.1,22.9,90,59,34,29.88,29.56,23,4,23,0.28
2013-5-25,63.0,52.2,45.0,31.2,24.6,13.5,57,37,18,29.91,29.83,26,7,26,0.08
2013-5-26,71.6,58.9,48.7,24.6,20.0,14.8,37,23,15,30.09,29.91,23,5,27,0.08
2013-5-27,76.1,59.6,38.8,37.9,25.0,20.2,68,30,15,30.15,30.00,15,2,15,0.08
2013-5-28,64.2,59.1,48.9,58.9,46.3,27.6,90,64,35,30.09,29.97,10,1,10,0.16
2013-5-29,90.3,74.3,58.1,64.9,45.6,32.9,90,47,15,30.00,29.85,13,2,13,0.08
2013-5-30,94.6,80.5,66.0,60.5,42.9,31.0,73,31,11,30.00,29.88,11,1,11,0.00
2013-5-31,93.2,79.6,65.8,63.7,44.3,31.0,79,35,12,30.00,29.83,13,2,13,0.00
2013-6-1,90.3,79.4,66.2,61.4,45.8,38.0,78,35,17,29.88,29.74,15,3,15,0.00
2013-6-2,89.2,79.3,68.9,59.3,46.4,39.0,71,34,19,29.77,29.65,14,4,14,0.04
2013-6-3,81.5,72.1,67.8,66.8,55.0,41.0,91,59,24,29.74,29.65,11,1,11,0.00
2013-6-4,77.9,67.0,56.1,47.0,28.1,20.7,46,24,15,29.97,29.74,17,3,17,0.00
2013-6-5,80.6,64.6,47.3,46.0,31.2,24.6,67,32,15,30.06,29.94,9,2,9,0.00
2013-6-6,73.2,65.0,55.8,59.9,41.3,27.0,93,48,19,30.00,29.83,14,3,14,0.00
2013-6-7,70.3,65.2,61.5,66.3,59.6,46.1,91,82,56,29.85,29.41,16,4,16,2.92
2013-6-8,80.4,68.8,59.5,59.4,46.9,37.5,91,50,24,29.91,29.41,13,2,13,0.08
2013-6-9,84.7,72.1,60.1,56.3,44.7,34.4,84,44,18,30.06,29.91,10,1,10,0.00
2013-6-10,73.9,70.0,64.0,69.2,63.2,46.4,94,80,44,30.00,29.68,10,3,10,1.90
2013-6-11,83.3,75.0,68.4,66.8,48.5,35.5,87,45,21,29.68,29.50,21,4,21,1.78
2013-6-12,86.0,72.9,64.8,49.9,38.0,31.7,56,29,16,29.71,29.62,17,3,17,0.00
2013-6-13,79.3,68.5,61.3,65.4,50.0,37.2,92,54,32,29.71,29.26,14,3,14,1.10
2013-6-14,74.7,61.5,54.9,57.4,43.5,30.9,83,55,23,29.77,29.32,18,4,26,0.31
2013-6-15,83.3,69.6,56.7,57.6,40.7,27.0,91,45,14,29.88,29.77,13,2,13,0.00
2013-6-16,83.7,70.3,57.6,59.3,45.2,35.6,82,47,19,29.88,29.68,15,2,15,0.00
2013-6-17,87.1,74.3,63.0,67.3,47.7,36.3,87,47,19,29.80,29.68,11,2,11,0.00
2013-6-18,81.5,67.6,62.1,62.7,54.5,40.7,88,66,27,29.77,29.65,13,1,13,0.91
2013-6-19,80.6,68.7,57.6,59.1,40.3,27.3,85,42,15,30.03,29.71,15,3,15,0.00
2013-6-20,79.5,67.4,53.4,56.0,37.8,26.8,83,40,20,30.12,30.03,10,2,10,0.00
2013-6-21,84.6,69.1,52.9,54.1,37.1,29.7,78,36,16,30.18,30.09,10,2,10,0.00
2013-6-22,86.4,70.9,54.1,58.5,41.7,34.7,88,41,18,30.12,29.97,10,2,10,0.00
2013-6-23,86.7,73.0,58.5,69.3,51.8,38.3,88,53,22,30.06,29.91,11,2,11,0.63
2013-6-24,93.0,77.0,66.7,72.8,53.4,38.1,89,51,17,29.94,29.83,20,1,20,0.00
2013-6-25,92.1,76.4,65.5,67.6,51.9,39.5,84,48,17,29.85,29.68,15,2,15,0.00
2013-6-26,92.1,79.1,67.5,66.5,49.2,39.6,84,39,18,29.74,29.59,12,2,12,0.51
2013-6-27,88.5,77.5,70.3,69.1,56.9,41.6,84,56,20,29.65,29.41,16,2,17,0.35
2013-6-28,87.8,76.4,70.0,68.6,55.4,40.3,86,54,20,29.44,29.32,12,2,12,0.04
2013-6-29,88.7,76.5,66.4,69.0,51.1,36.6,93,50,18,29.53,29.35,10,2,10,0.04
2013-6-30,83.1,74.4,70.0,73.8,60.8,47.0,92,66,29,29.74,29.53,10,2,10,0.31
2013-7-1,79.7,74.7,71.8,68.8,65.0,57.8,84,72,49,29.88,29.74,11,3,11,0.24
2013-7-2,85.8,76.2,71.6,69.8,62.9,49.6,88,66,30,30.03,29.88,13,3,13,0.28
2013-7-3,87.1,76.4,70.2,71.1,62.8,49.6,89,67,29,30.09,29.97,12,1,12,0.12
2013-7-4,90.1,80.5,73.2,73.1,55.7,40.5,91,50,19,30.09,29.97,13,2,13,0.12
2013-7-5,91.9,81.4,70.7,68.8,53.4,41.4,86,44,18,30.06,29.91,10,2,10,0.12
2013-7-6,94.6,83.3,72.3,71.6,52.9,40.7,90,42,17,30.00,29.85,10,2,10,0.00
2013-7-7,94.1,82.6,71.4,68.6,51.5,42.7,83,38,18,29.91,29.77,14,2,14,0.00
2013-7-8,88.9,76.0,68.4,65.2,53.6,43.0,79,49,21,29.91,29.83,15,1,15,0.24
2013-7-9,89.1,78.2,67.6,70.3,53.4,41.8,89,49,20,29.91,29.83,9,1,9,0.00
2013-7-10,89.2,77.4,71.8,71.2,60.6,44.7,89,61,23,29.85,29.65,11,1,11,0.00
2013-7-11,87.3,78.0,71.8,70.7,55.3,41.2,84,49,21,29.74,29.65,10,1,10,0.43
2013-7-12,75.9,71.3,68.2,66.5,57.8,45.4,87,65,37,29.88,29.74,17,4,17,0.47
2013-7-13,86.9,77.0,69.6,68.6,61.2,48.8,91,62,29,30.12,29.88,11,1,11,0.00
2013-7-14,91.2,81.3,72.9,71.2,54.9,41.1,89,48,18,30.18,30.06,9,1,9,0.04
2013-7-15,97.9,83.9,71.4,70.4,53.1,41.1,84,42,16,30.09,29.94,9,2,9,0.00
2013-7-16,95.7,83.8,73.6,63.5,49.5,38.4,69,34,14,30.03,29.94,14,2,14,0.00
2013-7-17,99.1,84.0,70.5,69.3,50.9,37.9,83,40,13,30.03,29.88,10,1,10,0.00
2013-7-18,99.1,83.5,71.6,69.7,56.6,43.4,78,45,16,29.91,29.80,9,1,9,0.00
2013-7-19,96.4,86.2,76.1,75.3,55.5,42.2,89,43,17,29.83,29.65,12,2,12,0.00
2013-7-20,93.2,83.6,72.9,57.9,49.4,43.3,58,32,19,29.71,29.59,15,2,15,0.00
2013-7-21,91.2,75.4,70.2,70.7,62.7,42.5,88,70,19,29.80,29.68,33,2,33,0.60
2013-7-22,88.7,76.9,69.8,70.4,61.5,50.4,88,64,28,29.80,29.62,13,2,13,0.12
2013-7-23,89.4,78.5,70.7,71.6,56.9,42.8,89,53,21,29.62,29.41,14,2,14,0.00
2013-7-24,84.9,76.1,67.8,65.3,47.7,32.3,84,43,21,29.77,29.47,11,2,11,0.00
2013-7-25,68.4,65.6,62.8,50.1,37.6,31.9,62,36,27,29.88,29.74,11,4,14,0.00
2013-7-26,84.9,72.6,63.0,57.8,43.9,36.0,72,39,19,29.91,29.83,9,2,10,0.00
2013-7-27,86.9,72.5,61.3,64.5,47.0,32.8,89,48,16,29.91,29.77,12,2,12,0.00
2013-7-28,82.2,71.5,65.7,66.5,56.3,44.9,92,63,30,29.85,29.74,11,2,11,0.00
2013-7-29,86.9,71.3,62.4,66.7,53.4,25.6,87,62,13,29.97,29.80,10,1,10,0.00
2013-7-30,85.1,67.2,57.6,55.4,42.8,31.8,75,46,16,30.03,29.94,11,1,11,0.00
2013-7-31,85.3,67.5,57.6,61.8,47.1,31.8,84,55,16,30.03,29.88,8,1,8,0.00
2013-8-1,70.3,68.7,65.8,66.0,57.3,45.7,88,68,43,29.88,29.68,11,2,11,0.47
2013-8-2,87.1,75.4,66.7,66.2,47.4,31.8,90,46,16,29.77,29.65,15,2,15,0.04
2013-8-3,79.5,70.7,64.9,67.7,51.4,40.0,89,54,26,29.80,29.71,9,1,9,0.00
2013-8-4,81.9,70.4,59.7,61.8,43.1,28.8,84,45,17,29.83,29.71,12,2,13,0.00
2013-8-5,80.6,68.2,57.9,50.1,35.0,24.6,68,33,14,29.91,29.83,12,2,12,0.00
2013-8-6,81.5,67.7,54.5,58.6,43.4,30.5,84,47,17,29.97,29.85,11,1,11,0.00
2013-8-7,77.0,70.9,65.5,67.1,54.4,44.0,89,58,32,29.97,29.88,12,3,12,0.08
2013-8-8,87.8,74.0,69.6,67.8,60.6,44.4,91,69,23,29.91,29.83,13,3,13,0.00
2013-8-9,87.1,78.1,73.9,71.9,64.2,50.9,88,65,30,29.85,29.65,12,3,12,0.24
2013-8-10,86.0,76.2,66.9,70.2,49.1,35.6,88,45,18,29.88,29.71,10,2,10,0.00
2013-8-11,87.3,73.8,62.1,60.9,46.2,33.2,85,44,16,29.97,29.85,10,2,10,0.00
2013-8-12,84.4,73.7,65.5,67.3,56.0,41.7,90,59,24,29.88,29.77,10,1,10,0.04
2013-8-13,84.2,73.9,69.4,69.7,57.3,38.9,91,63,21,29.77,29.53,12,1,12,0.75
2013-8-14,75.9,68.2,55.8,64.4,32.9,27.0,78,28,18,29.91,29.59,19,4,19,0.00
2013-8-15,81.0,59.3,51.8,50.5,40.8,24.4,84,57,14,30.03,29.91,10,1,10,0.00
2013-8-16,83.1,63.0,52.9,55.7,41.5,26.3,82,53,14,30.06,29.97,8,0,8,0.00
2013-8-17,81.7,67.3,55.0,60.2,40.7,27.7,93,46,17,30.15,30.06,8,1,8,0.00
2013-8-18,76.5,67.5,60.1,55.0,46.3,35.5,78,50,24,30.12,29.97,13,1,13,0.00
2013-8-19,77.9,68.3,59.5,63.6,46.6,33.8,88,52,21,30.00,29.88,8,1,8,0.00
2013-8-20,89.8,74.1,60.8,68.2,48.6,37.5,87,49,18,30.00,29.91,8,1,8,0.00
2013-8-21,91.2,75.7,63.1,67.2,50.1,30.5,86,51,12,30.03,29.88,10,1,10,0.00
2013-8-22,83.8,72.6,68.2,70.2,59.7,44.8,86,67,27,29.91,29.74,15,1,15,0.20
2013-8-23,78.3,70.9,62.6,66.1,50.8,36.4,89,53,23,29.94,29.74,10,1,10,0.00
2013-8-24,82.2,68.3,57.2,57.9,38.4,26.1,83,38,14,30.21,29.94,11,3,11,0.00
2013-8-25,83.3,66.6,51.8,59.3,40.0,26.4,84,47,14,30.27,30.09,9,1,9,0.00
2013-8-26,85.6,70.8,58.5,57.8,44.9,36.9,81,45,19,30.12,29.80,11,1,11,0.00
2013-8-27,90.1,77.8,69.1,62.5,49.2,40.2,79,41,18,29.80,29.68,14,2,15,0.00
2013-8-28,79.3,71.5,65.3,70.9,63.2,46.0,89,76,32,29.74,29.68,5,0,5,0.28
2013-8-29,80.8,72.4,66.6,66.9,55.9,43.1,89,60,27,29.88,29.71,11,2,11,0.00
2013-8-30,82.8,72.6,64.2,67.0,53.3,41.9,88,56,24,29.88,29.71,10,1,10,0.00
2013-8-31,88.3,76.9,68.0,68.0,54.1,42.5,90,52,21,29.74,29.62,13,2,13,0.00
2013-9-1,91.0,78.1,70.2,71.7,56.1,40.5,91,52,18,29.71,29.59,12,2,12,0.00
2013-9-2,80.1,74.2,70.5,71.4,64.9,48.7,89,75,35,29.62,29.53,6,0,6,0.28
2013-9-3,84.4,75.2,66.9,68.8,51.8,29.3,84,53,16,29.74,29.56,13,2,13,0.00
2013-9-4,83.5,69.7,59.7,47.5,36.9,27.5,64,33,14,29.88,29.74,12,2,12,0.00
2013-9-5,80.6,67.2,54.9,60.7,39.0,20.7,83,43,16,29.97,29.80,11,2,11,0.00
2013-9-6,75.2,61.3,49.8,36.1,27.3,20.1,59,29,16,30.12,29.97,10,2,10,0.00
2013-9-7,80.2,62.2,44.6,53.2,34.6,24.1,83,44,15,30.00,29.80,11,1,11,0.00
2013-9-8,84.2,71.1,61.2,62.1,41.9,24.9,81,40,19,29.91,29.68,13,2,13,0.00
2013-9-9,77.0,64.3,52.0,48.5,34.7,24.8,59,35,21,30.09,29.91,9,3,9,0.00
2013-9-10,87.3,75.0,61.7,64.2,54.6,48.0,77,52,28,30.03,29.88,13,2,13,0.00
2013-9-11,93.9,77.3,70.2,70.1,57.5,40.5,89,57,17,29.97,29.83,10,1,10,0.00
2013-9-12,88.3,76.6,69.1,71.7,52.4,35.6,92,49,20,29.83,29.53,15,2,15,0.00
2013-9-13,79.3,68.3,59.7,66.0,54.1,27.4,90,66,18,29.74,29.50,17,2,17,0.20
2013-9-14,68.7,59.1,46.9,39.3,28.9,24.0,64,33,20,30.00,29.74,17,4,17,0.20
2013-9-15,74.3,58.1,42.4,48.1,33.0,23.1,82,45,16,30.12,29.94,13,1,13,0.00
2013-9-16,72.0,61.2,54.1,56.3,42.5,30.2,82,54,23,30.09,29.88,11,1,11,0.00
2013-9-17,66.2,55.2,42.8,31.7,24.3,18.5,64,32,18,30.30,30.09,17,3,17,0.00
2013-9-18,73.9,55.7,39.4,44.2,31.2,22.0,90,46,16,30.21,30.06,8,1,8,0.00
2013-9-19,77.2,58.8,42.3,52.0,35.8,27.4,85,49,18,30.09,29.91,10,1,10,0.00
2013-9-20,81.0,62.7,45.9,57.0,39.5,32.8,87,49,20,29.97,29.83,11,1,11,0.00
2013-9-21,79.9,65.6,50.7,66.0,44.6,30.4,93,54,17,29.88,29.53,15,3,15,0.83
2013-9-22,72.3,63.8,53.8,62.8,36.1,18.5,86,43,16,29.80,29.53,17,3,17,0.00
2013-9-23,69.1,57.1,44.2,29.8,22.2,18.7,51,27,17,29.91,29.80,17,3,17,0.00
2013-9-24,73.4,56.5,42.8,40.9,29.3,23.1,70,39,16,29.94,29.77,13,2,13,0.00
2013-9-25,74.7,54.5,45.1,42.7,33.4,23.1,75,49,16,29.85,29.74,9,1,9,0.00
2013-9-26,74.1,58.3,46.8,51.3,39.8,29.3,93,56,22,29.94,29.80,8,1,8,0.00
2013-9-27,71.6,61.4,54.3,52.9,38.9,25.9,86,50,19,30.12,29.94,11,2,11,0.00
2013-9-28,72.7,60.9,50.2,49.2,36.6,25.7,80,46,19,30.18,30.09,12,2,12,0.00
2013-9-29,72.3,59.3,49.6,50.6,37.9,26.5,87,52,19,30.09,29.94,12,2,12,0.00
2013-9-30,77.0,60.0,49.1,51.0,37.2,24.4,92,51,15,29.97,29.83,10,1,10,0.00
2013-10-1,81.9,63.7,47.8,56.7,40.0,30.8,84,50,17,29.91,29.77,11,1,11,0.00
2013-10-2,84.2,68.4,52.9,62.2,42.9,32.0,88,49,16,29.88,29.77,13,2,13,0.00
2013-10-3,82.0,67.9,57.6,59.5,41.6,29.4,88,46,17,29.97,29.88,7,1,7,0.00
2013-10-4,86.7,70.4,57.6,60.5,45.2,36.0,83,47,18,29.94,29.83,11,1,11,0.00
2013-10-5,84.9,70.3,63.9,64.8,53.0,38.6,90,60,21,29.94,29.85,10,2,10,0.08
2013-10-6,81.7,66.5,65.1,63.8,59.9,38.3,90,81,22,29.94,29.83,10,0,10,0.00
2013-10-7,78.6,66.3,57.4,65.0,55.5,36.0,90,70,33,29.85,29.65,16,2,16,0.31
2013-10-8,66.9,58.6,50.0,44.2,32.6,25.8,73,40,22,30.15,29.85,14,2,14,0.00
2013-10-9,62.1,56.7,51.6,35.4,32.3,27.8,50,40,29,30.21,30.09,17,5,17,0.00
2013-10-10,61.5,58.4,54.9,56.3,47.5,32.6,88,68,37,30.09,29.88,17,6,17,0.28
2013-10-11,64.2,61.7,60.3,59.7,52.1,42.9,93,71,46,29.91,29.83,20,7,20,0.91
2013-10-12,69.6,63.9,60.4,45.2,35.4,26.3,56,35,24,30.09,29.88,26,7,26,0.00
2013-10-13,66.6,59.9,50.9,42.9,34.6,27.4,74,40,24,30.21,30.06,18,6,18,0.00
2013-10-14,70.3,55.9,47.7,45.9,36.9,27.9,88,55,23,30.21,30.09,10,2,10,0.00
2013-10-15,72.5,56.5,45.7,52.8,34.4,18.5,90,52,14,30.12,29.97,11,1,11,0.00
2013-10-16,71.1,61.2,50.7,55.3,45.1,35.0,89,60,27,29.97,29.77,8,1,8,0.00
2013-10-17,73.9,65.8,61.2,57.4,49.1,37.3,83,59,28,29.80,29.56,11,2,11,0.00
2013-10-18,67.6,59.6,45.1,54.3,27.4,20.6,65,30,20,29.85,29.56,22,4,22,0.00
2013-10-19,63.3,52.1,39.2,51.5,34.0,25.3,84,55,24,29.88,29.65,9,1,9,0.00
2013-10-20,63.9,53.3,39.9,46.7,24.6,15.3,74,36,18,29.94,29.65,16,3,16,0.00
2013-10-21,68.2,51.2,34.7,44.6,26.2,17.6,81,45,17,30.03,29.85,8,2,8,0.00
2013-10-22,69.6,53.6,43.0,48.7,29.8,20.4,86,45,22,29.85,29.65,13,2,13,0.00
2013-10-23,54.1,47.2,39.2,31.4,22.3,16.2,55,38,27,29.71,29.50,11,2,11,0.00
2013-10-24,55.6,44.4,33.8,22.3,15.3,7.9,49,32,18,29.94,29.68,15,3,15,0.00
2013-10-25,55.2,42.4,32.5,23.5,16.2,10.3,59,36,20,30.12,29.94,15,2,15,0.00
2013-10-26,56.8,42.7,27.5,35.6,17.8,10.7,78,42,20,30.15,29.80,14,2,14,0.00
2013-10-27,59.4,48.2,37.9,21.1,16.7,11.6,41,29,19,30.03,29.77,17,2,17,0.00
2013-10-28,63.7,45.5,29.7,36.3,20.7,14.6,77,42,18,30.18,30.03,10,1,10,0.00
2013-10-29,62.1,48.1,39.2,30.7,23.1,18.4,67,38,24,30.27,30.18,12,2,12,0.00
2013-10-30,56.7,47.9,38.7,51.2,40.8,30.5,86,76,66,30.24,30.06,5,0,5,0.00
2013-10-31,69.6,61.4,53.6,58.3,44.1,33.6,88,58,27,30.09,29.71,13,3,13,0.04
2013-11-1,70.3,65.0,56.1,57.7,43.1,31.9,83,47,26,29.71,29.47,17,4,17,0.04
2013-11-2,71.1,59.1,51.6,55.6,34.8,13.5,93,51,17,29.68,29.50,10,2,10,0.04
2013-11-3,52.9,45.9,34.9,23.8,13.0,-0.2,38,27,18,30.33,29.68,13,4,15,0.00
2013-11-4,47.7,38.2,30.6,7.4,2.9,-2.8,30,22,19,30.50,30.33,12,3,14,0.00
2013-11-5,60.6,46.4,35.2,26.6,16.8,6.9,53,31,19,30.50,30.36,9,2,9,0.04
2013-11-6,65.8,52.0,33.8,49.9,31.2,23.6,82,50,23,30.36,29.94,10,2,10,0.04
2013-11-7,63.5,55.3,39.9,52.2,38.1,18.5,71,53,34,29.94,29.68,18,3,18,0.08
2013-11-8,51.1,43.5,33.8,23.2,12.1,7.9,47,28,21,30.15,29.85,17,4,21,0.04
2013-11-9,52.2,41.0,27.0,26.0,13.9,10.1,68,35,21,30.21,29.88,11,2,11,0.04
2013-11-10,63.1,48.1,34.9,24.8,16.0,7.0,63,31,16,30.00,29.74,27,4,27,0.04
2013-11-11,55.9,48.6,38.7,16.6,11.6,5.9,30,22,17,30.12,29.88,15,4,15,0.04
2013-11-12,40.3,34.7,29.1,26.6,6.5,-1.4,75,32,24,30.21,29.94,20,6,20,0.00
2013-11-13,40.5,31.8,25.0,3.6,0.6,-2.7,38,26,21,30.30,30.21,21,4,21,0.00
2013-11-14,55.4,34.9,24.6,12.5,6.2,-0.4,44,32,17,30.21,30.06,14,1,14,0.00
2013-11-15,59.2,40.5,26.1,22.6,12.5,4.0,58,34,17,30.15,30.03,8,1,8,0.00
2013-11-16,55.4,47.0,40.5,44.0,36.0,27.6,86,67,36,30.24,30.15,6,1,6,0.00
2013-11-17,66.6,58.1,48.0,58.3,45.0,36.2,94,65,33,30.15,29.65,10,2,10,0.00
2013-11-18,68.5,61.1,51.1,59.3,26.8,9.7,83,32,15,29.71,29.53,21,5,21,0.08
2013-11-19,51.1,44.1,29.3,10.1,5.8,-1.0,32,20,19,30.24,29.71,25,7,25,0.00
2013-11-20,46.0,34.0,25.0,7.9,2.4,-6.0,41,26,20,30.47,30.24,13,2,13,0.00
2013-11-21,55.0,43.6,31.3,23.5,13.4,-1.1,39,29,23,30.47,30.27,10,3,10,0.00
2013-11-22,57.6,51.3,45.9,46.9,34.0,23.3,80,53,36,30.27,29.83,11,1,11,0.00
2013-11-23,52.7,43.3,30.4,46.4,10.9,0.4,80,27,20,29.97,29.83,25,7,25,0.00
2013-11-24,30.9,26.3,22.8,1.4,-8.0,-10.3,28,21,20,30.33,29.97,31,9,31,0.00
2013-11-25,36.3,28.1,19.0,1.0,-4.1,-12.5,32,24,22,30.42,30.24,12,3,12,0.00
2013-11-26,55.8,37.4,29.8,51.8,17.6,-1.7,96,49,23,30.27,29.56,13,3,13,0.43
2013-11-27,63.7,47.0,33.3,57.5,34.3,5.2,90,63,30,29.74,29.26,27,5,27,0.00
2013-11-28,37.9,32.0,27.3,9.0,2.0,-2.0,41,28,21,30.39,29.74,23,5,23,0.00
2013-11-29,42.1,31.9,22.8,21.5,6.4,0.7,64,36,21,30.62,30.36,8,0,8,0.00
2013-11-30,39.9,32.4,23.4,13.8,6.0,-2.1,40,32,29,30.62,30.27,10,1,10,0.00
2013-12-1,50.9,40.5,28.6,23.6,15.4,12.6,61,37,24,30.27,29.91,6,0,6,0.00
2013-12-2,50.4,39.9,32.2,23.3,16.3,9.4,60,40,21,29.91,29.77,0,0,0,0.00
2013-12-3,55.4,42.3,31.3,30.8,22.2,13.5,70,48,23,29.91,29.77,0,0,0,0.00
2013-12-4,55.2,44.4,30.9,36.6,26.8,19.8,82,54,29,30.00,29.91,0,0,0,0.00
2013-12-5,59.7,55.4,49.1,56.8,46.7,35.8,95,74,46,30.00,29.83,11,1,11,0.00
2013-12-6,62.8,51.4,38.8,58.7,44.1,28.3,91,77,54,30.00,29.77,15,3,15,0.00
2013-12-7,42.6,35.7,30.9,16.4,8.4,4.0,41,32,29,30.42,30.21,15,5,15,0.00
2013-12-8,32.2,28.6,26.2,29.3,12.2,0.4,89,54,30,30.47,30.21,13,4,13,0.00
2013-12-9,37.2,35.4,32.2,34.0,32.3,28.4,94,89,81,30.21,29.88,15,3,15,0.67
2013-12-10,34.5,32.5,23.0,30.0,27.1,15.3,85,80,56,30.09,29.77,7,0,7,0.00
2013-12-11,34.5,24.3,16.9,23.1,9.9,-0.3,77,57,25,30.27,30.06,0,0,0,0.04
2013-12-12,29.1,22.6,15.8,11.3,-1.5,-10.5,64,36,23,30.27,30.12,13,1,13,0.00
2013-12-13,37.9,26.7,12.7,5.7,-1.1,-7.1,50,31,21,30.24,30.06,15,2,15,0.00
2013-12-14,42.6,32.0,26.8,42.1,18.9,3.9,98,62,33,30.33,29.56,19,4,19,0.63
2013-12-15,41.5,36.0,31.1,39.9,18.8,3.3,98,56,26,29.80,29.44,22,3,22,0.24
2013-12-16,33.4,27.3,19.6,5.9,-3.5,-9.4,36,26,20,30.15,29.80,21,5,21,0.24
2013-12-17,34.9,28.2,23.4,22.4,10.0,-5.9,67,47,24,30.12,29.83,8,2,8,0.24
2013-12-18,39.4,29.3,20.5,10.4,4.0,-1.1,50,35,21,30.12,29.85,13,3,15,0.24
2013-12-19,48.6,35.1,21.0,17.3,9.1,0.9,63,36,21,30.12,29.94,12,1,13,0.24
2013-12-20,55.8,45.0,33.6,37.6,17.2,10.6,61,34,20,30.00,29.88,12,1,12,0.24
2013-12-21,68.2,58.4,50.4,42.5,31.2,27.5,66,37,23,29.91,29.80,15,3,15,0.00
2013-12-22,72.0,65.7,61.7,55.6,42.4,35.8,69,43,33,29.88,29.71,22,5,22,0.00
2013-12-23,63.7,56.6,42.8,61.8,43.6,14.3,95,64,31,30.06,29.80,17,3,17,0.20
2013-12-24,42.8,36.1,27.7,14.8,5.4,-2.8,33,27,21,30.27,30.00,20,6,20,0.00
2013-12-25,30.9,25.8,19.6,0.7,-4.2,-10.5,32,26,23,30.42,30.27,17,3,17,0.00
2013-12-26,41.5,29.7,21.9,11.5,7.2,-0.7,53,39,26,30.33,30.06,16,1,16,0.00
2013-12-27,46.4,31.6,22.1,17.0,6.7,-1.0,62,37,19,30.30,30.18,13,1,13,0.00
2013-12-28,57.9,38.8,23.0,20.5,10.0,5.0,64,34,17,30.21,30.00,13,2,13,0.00
2013-12-29,49.6,41.5,34.0,45.2,28.0,9.0,97,61,32,30.00,29.32,15,2,15,0.67
2013-12-30,46.9,37.6,26.4,35.4,14.8,-4.3,78,42,23,30.09,29.65,18,4,18,0.00
2013-12-31,37.9,29.1,21.2,8.6,-1.7,-7.1,32,26,22,30.24,29.97,20,4,20,0.00
2014-1-1,42.1,30.6,21.4,8.9,0.7,-8.2,40,28,21,30.33,30.12,12,2,12,0.00
2014-1-2,35.4,30.0,20.8,18.1,14.4,8.9,73,53,34,30.12,29.53,18,7,18,0.00